sensor_id;sensor_type;location;lat;lon;timestamp;temperature;humidity
18932;DHT22;9598;50.954;3.112;2022-10-26T00:02:47;15.90;99.90
18932;DHT22;9598;50.954;3.112;2022-10-26T00:07:49;15.90;99.90
18932;DHT22;9598;50.954;3.112;2022-10-26T00:12:53;15.80;99.90
18932;DHT22;9598;50.954;3.112;2022-10-26T00:17:55;15.80;99.90
18932;DHT22;9598;50.954;3.112;2022-10-26T00:22:57;15.80;99.90
18932;DHT22;9598;50.954;3.112;2022-10-26T00:28:00;15.80;99.90
18932;DHT22;9598;50.954;3.112;2022-10-26T00:33:02;15.80;99.90
18932;DHT22;9598;50.954;3.112;2022-10-26T00:38:04;15.80;99.90
18932;DHT22;9598;50.954;3.112;2022-10-26T00:43:14;15.80;99.90
18932;DHT22;9598;50.954;3.112;2022-10-26T00:48:22;15.80;99.90
18932;DHT22;9598;50.954;3.112;2022-10-26T00:53:25;15.80;99.90
18932;DHT22;9598;50.954;3.112;2022-10-26T00:58:29;15.80;99.90
18932;DHT22;9598;50.954;3.112;2022-10-26T01:03:33;15.80;99.90
18932;DHT22;9598;50.954;3.112;2022-10-26T01:08:36;15.90;99.90
18932;DHT22;9598;50.954;3.112;2022-10-26T01:13:41;15.90;99.90
18932;DHT22;9598;50.954;3.112;2022-10-26T01:18:53;15.90;99.90
18932;DHT22;9598;50.954;3.112;2022-10-26T01:24:09;15.90;99.90
18932;DHT22;9598;50.954;3.112;2022-10-26T01:29:57;15.90;99.90
18932;DHT22;9598;50.954;3.112;2022-10-26T01:35:07;15.90;99.90
18932;DHT22;9598;50.954;3.112;2022-10-26T01:40:16;15.90;99.90
18932;DHT22;9598;50.954;3.112;2022-10-26T01:45:19;15.90;99.90
18932;DHT22;9598;50.954;3.112;2022-10-26T01:50:23;15.90;99.90
18932;DHT22;9598;50.954;3.112;2022-10-26T01:55:42;15.90;99.90
18932;DHT22;9598;50.954;3.112;2022-10-26T02:00:53;16.00;99.90
18932;DHT22;9598;50.954;3.112;2022-10-26T02:06:06;16.00;99.90
18932;DHT22;9598;50.954;3.112;2022-10-26T02:11:23;16.00;99.90
18932;DHT22;9598;50.954;3.112;2022-10-26T02:16:38;16.00;99.90
18932;DHT22;9598;50.954;3.112;2022-10-26T02:21:49;16.00;99.90
18932;DHT22;9598;50.954;3.112;2022-10-26T02:26:55;16.00;99.90
18932;DHT22;9598;50.954;3.112;2022-10-26T02:31:58;16.00;99.90
18932;DHT22;9598;50.954;3.112;2022-10-26T02:37:03;16.00;99.90
18932;DHT22;9598;50.954;3.112;2022-10-26T02:42:07;16.10;99.90
18932;DHT22;9598;50.954;3.112;2022-10-26T02:47:10;16.10;99.90
18932;DHT22;9598;50.954;3.112;2022-10-26T02:52:18;16.10;99.90
18932;DHT22;9598;50.954;3.112;2022-10-26T02:57:28;16.10;99.90
18932;DHT22;9598;50.954;3.112;2022-10-26T03:02:32;16.10;99.90
18932;DHT22;9598;50.954;3.112;2022-10-26T03:07:35;16.10;99.90
18932;DHT22;9598;50.954;3.112;2022-10-26T03:12:37;16.10;99.90
18932;DHT22;9598;50.954;3.112;2022-10-26T03:17:39;16.10;99.90
18932;DHT22;9598;50.954;3.112;2022-10-26T03:22:43;16.10;99.90
18932;DHT22;9598;50.954;3.112;2022-10-26T03:27:55;16.10;99.90
18932;DHT22;9598;50.954;3.112;2022-10-26T03:32:57;16.10;99.90
18932;DHT22;9598;50.954;3.112;2022-10-26T03:38:00;16.10;99.90
18932;DHT22;9598;50.954;3.112;2022-10-26T03:43:02;16.10;99.90
18932;DHT22;9598;50.954;3.112;2022-10-26T03:48:05;16.10;99.90
18932;DHT22;9598;50.954;3.112;2022-10-26T03:53:08;16.10;99.90
18932;DHT22;9598;50.954;3.112;2022-10-26T03:58:10;16.10;99.90
18932;DHT22;9598;50.954;3.112;2022-10-26T04:03:12;16.10;99.90
18932;DHT22;9598;50.954;3.112;2022-10-26T04:08:15;16.10;99.90
18932;DHT22;9598;50.954;3.112;2022-10-26T04:13:17;16.10;99.90
18932;DHT22;9598;50.954;3.112;2022-10-26T04:18:19;16.10;99.90
18932;DHT22;9598;50.954;3.112;2022-10-26T04:23:23;16.10;99.90
18932;DHT22;9598;50.954;3.112;2022-10-26T04:28:25;16.10;99.90
18932;DHT22;9598;50.954;3.112;2022-10-26T04:33:27;16.10;99.90
18932;DHT22;9598;50.954;3.112;2022-10-26T04:38:30;16.20;99.90
18932;DHT22;9598;50.954;3.112;2022-10-26T04:43:32;16.20;99.90
18932;DHT22;9598;50.954;3.112;2022-10-26T04:48:34;16.20;99.90
18932;DHT22;9598;50.954;3.112;2022-10-26T04:53:38;16.20;99.90
18932;DHT22;9598;50.954;3.112;2022-10-26T04:58:40;16.10;99.90
18932;DHT22;9598;50.954;3.112;2022-10-26T05:03:42;16.10;99.90
18932;DHT22;9598;50.954;3.112;2022-10-26T05:08:45;16.10;99.90
18932;DHT22;9598;50.954;3.112;2022-10-26T05:13:47;16.00;99.90
18932;DHT22;9598;50.954;3.112;2022-10-26T05:18:49;16.00;99.90
18932;DHT22;9598;50.954;3.112;2022-10-26T05:23:53;16.00;99.90
18932;DHT22;9598;50.954;3.112;2022-10-26T05:28:55;16.00;99.90
18932;DHT22;9598;50.954;3.112;2022-10-26T05:33:57;16.00;99.90
18932;DHT22;9598;50.954;3.112;2022-10-26T05:39:01;16.00;99.90
18932;DHT22;9598;50.954;3.112;2022-10-26T05:44:03;16.00;99.90
18932;DHT22;9598;50.954;3.112;2022-10-26T05:49:05;16.00;99.90
18932;DHT22;9598;50.954;3.112;2022-10-26T05:54:08;15.90;99.90
18932;DHT22;9598;50.954;3.112;2022-10-26T05:59:12;15.90;99.90
18932;DHT22;9598;50.954;3.112;2022-10-26T06:04:24;15.90;99.90
18932;DHT22;9598;50.954;3.112;2022-10-26T06:09:31;15.90;99.90
18932;DHT22;9598;50.954;3.112;2022-10-26T06:14:33;15.90;99.90
18932;DHT22;9598;50.954;3.112;2022-10-26T06:19:46;15.80;99.90
18932;DHT22;9598;50.954;3.112;2022-10-26T06:25:01;15.80;99.90
18932;DHT22;9598;50.954;3.112;2022-10-26T06:30:07;15.80;99.90
18932;DHT22;9598;50.954;3.112;2022-10-26T06:35:20;15.80;99.90
18932;DHT22;9598;50.954;3.112;2022-10-26T06:40:25;15.80;99.90
18932;DHT22;9598;50.954;3.112;2022-10-26T06:45:28;15.80;99.90
18932;DHT22;9598;50.954;3.112;2022-10-26T06:50:36;15.80;99.90
18932;DHT22;9598;50.954;3.112;2022-10-26T06:55:42;15.80;99.90
18932;DHT22;9598;50.954;3.112;2022-10-26T07:00:46;15.80;99.90
18932;DHT22;9598;50.954;3.112;2022-10-26T07:05:49;15.90;99.90
18932;DHT22;9598;50.954;3.112;2022-10-26T07:10:52;15.80;99.90
18932;DHT22;9598;50.954;3.112;2022-10-26T07:15:54;15.90;99.90
18932;DHT22;9598;50.954;3.112;2022-10-26T07:20:57;15.90;99.90
18932;DHT22;9598;50.954;3.112;2022-10-26T07:26:01;15.90;99.90
18932;DHT22;9598;50.954;3.112;2022-10-26T07:31:03;15.90;99.90
18932;DHT22;9598;50.954;3.112;2022-10-26T07:36:06;15.90;99.90
18932;DHT22;9598;50.954;3.112;2022-10-26T07:41:11;16.00;99.90
18932;DHT22;9598;50.954;3.112;2022-10-26T07:46:14;16.10;99.90
18932;DHT22;9598;50.954;3.112;2022-10-26T07:51:16;16.10;99.90
18932;DHT22;9598;50.954;3.112;2022-10-26T07:56:19;16.20;99.90
18932;DHT22;9598;50.954;3.112;2022-10-26T08:01:21;16.20;99.90
18932;DHT22;9598;50.954;3.112;2022-10-26T08:06:23;16.30;99.90
18932;DHT22;9598;50.954;3.112;2022-10-26T08:11:27;16.30;99.90
18932;DHT22;9598;50.954;3.112;2022-10-26T08:16:29;16.30;99.90
18932;DHT22;9598;50.954;3.112;2022-10-26T08:21:31;16.40;99.90
18932;DHT22;9598;50.954;3.112;2022-10-26T08:26:35;16.40;99.90
18932;DHT22;9598;50.954;3.112;2022-10-26T08:31:37;16.50;99.90
18932;DHT22;9598;50.954;3.112;2022-10-26T08:36:39;16.50;99.90
18932;DHT22;9598;50.954;3.112;2022-10-26T08:41:44;16.60;99.90
18932;DHT22;9598;50.954;3.112;2022-10-26T08:46:49;16.60;99.90
18932;DHT22;9598;50.954;3.112;2022-10-26T08:51:56;16.70;99.90
18932;DHT22;9598;50.954;3.112;2022-10-26T08:57:03;16.80;99.90
18932;DHT22;9598;50.954;3.112;2022-10-26T09:02:11;16.80;99.90
18932;DHT22;9598;50.954;3.112;2022-10-26T09:07:26;16.90;99.90
18932;DHT22;9598;50.954;3.112;2022-10-26T09:12:40;17.00;99.90
18932;DHT22;9598;50.954;3.112;2022-10-26T09:17:52;17.00;99.90
18932;DHT22;9598;50.954;3.112;2022-10-26T09:22:58;17.20;99.90
18932;DHT22;9598;50.954;3.112;2022-10-26T09:28:04;17.30;99.90
18932;DHT22;9598;50.954;3.112;2022-10-26T09:33:12;17.40;99.90
18932;DHT22;9598;50.954;3.112;2022-10-26T09:38:20;17.50;99.90
18932;DHT22;9598;50.954;3.112;2022-10-26T09:43:30;17.70;99.90
18932;DHT22;9598;50.954;3.112;2022-10-26T09:48:37;17.80;99.90
18932;DHT22;9598;50.954;3.112;2022-10-26T09:53:40;17.90;99.90
18932;DHT22;9598;50.954;3.112;2022-10-26T09:58:47;17.90;99.90
18932;DHT22;9598;50.954;3.112;2022-10-26T10:04:08;18.00;99.90
18932;DHT22;9598;50.954;3.112;2022-10-26T10:09:12;18.10;99.90
18932;DHT22;9598;50.954;3.112;2022-10-26T10:14:16;18.10;99.90
18932;DHT22;9598;50.954;3.112;2022-10-26T10:19:22;18.20;99.90
18932;DHT22;9598;50.954;3.112;2022-10-26T10:24:27;18.30;99.90
18932;DHT22;9598;50.954;3.112;2022-10-26T10:29:33;18.40;99.90
18932;DHT22;9598;50.954;3.112;2022-10-26T10:34:35;18.40;99.90
18932;DHT22;9598;50.954;3.112;2022-10-26T10:39:40;18.50;99.90
18932;DHT22;9598;50.954;3.112;2022-10-26T10:44:45;18.60;99.90
18932;DHT22;9598;50.954;3.112;2022-10-26T10:49:53;18.80;99.90
18932;DHT22;9598;50.954;3.112;2022-10-26T10:55:08;18.80;99.90
18932;DHT22;9598;50.954;3.112;2022-10-26T11:00:13;18.90;99.90
18932;DHT22;9598;50.954;3.112;2022-10-26T11:05:27;19.00;99.90
18932;DHT22;9598;50.954;3.112;2022-10-26T11:10:35;19.10;99.90
18932;DHT22;9598;50.954;3.112;2022-10-26T11:15:41;19.20;99.90
18932;DHT22;9598;50.954;3.112;2022-10-26T11:20:48;19.30;99.90
18932;DHT22;9598;50.954;3.112;2022-10-26T11:25:56;19.30;99.90
18932;DHT22;9598;50.954;3.112;2022-10-26T11:31:06;19.40;99.90
18932;DHT22;9598;50.954;3.112;2022-10-26T11:36:13;19.50;99.90
18932;DHT22;9598;50.954;3.112;2022-10-26T11:41:19;19.60;99.90
18932;DHT22;9598;50.954;3.112;2022-10-26T11:46:29;19.70;99.90
18932;DHT22;9598;50.954;3.112;2022-10-26T11:51:37;19.70;99.90
18932;DHT22;9598;50.954;3.112;2022-10-26T11:56:45;19.80;99.90
18932;DHT22;9598;50.954;3.112;2022-10-26T12:01:51;19.90;99.90
18932;DHT22;9598;50.954;3.112;2022-10-26T12:06:55;20.00;99.90
18932;DHT22;9598;50.954;3.112;2022-10-26T12:12:04;20.10;99.90
18932;DHT22;9598;50.954;3.112;2022-10-26T12:17:12;20.20;99.90
18932;DHT22;9598;50.954;3.112;2022-10-26T12:22:17;20.30;99.90
18932;DHT22;9598;50.954;3.112;2022-10-26T12:27:31;20.30;99.90
18932;DHT22;9598;50.954;3.112;2022-10-26T12:32:55;20.30;99.90
18932;DHT22;9598;50.954;3.112;2022-10-26T12:37:58;20.20;99.90
18932;DHT22;9598;50.954;3.112;2022-10-26T12:48:41;20.30;99.90
18932;DHT22;9598;50.954;3.112;2022-10-26T12:53:43;20.30;99.90
18932;DHT22;9598;50.954;3.112;2022-10-26T12:59:02;20.30;99.90
18932;DHT22;9598;50.954;3.112;2022-10-26T13:04:17;20.30;99.90
18932;DHT22;9598;50.954;3.112;2022-10-26T13:09:23;20.40;99.90
18932;DHT22;9598;50.954;3.112;2022-10-26T13:14:29;20.40;99.90
18932;DHT22;9598;50.954;3.112;2022-10-26T13:19:45;20.40;99.90
18932;DHT22;9598;50.954;3.112;2022-10-26T13:24:50;20.50;99.90
18932;DHT22;9598;50.954;3.112;2022-10-26T13:30:16;20.60;99.90
18932;DHT22;9598;50.954;3.112;2022-10-26T13:35:22;20.70;99.90
18932;DHT22;9598;50.954;3.112;2022-10-26T13:40:26;20.80;99.90
18932;DHT22;9598;50.954;3.112;2022-10-26T13:45:31;20.90;99.90
18932;DHT22;9598;50.954;3.112;2022-10-26T13:50:40;20.90;99.90
18932;DHT22;9598;50.954;3.112;2022-10-26T13:55:49;20.90;99.90
18932;DHT22;9598;50.954;3.112;2022-10-26T14:01:12;21.00;99.90
18932;DHT22;9598;50.954;3.112;2022-10-26T14:06:23;21.10;99.90
18932;DHT22;9598;50.954;3.112;2022-10-26T14:11:33;21.20;99.90
18932;DHT22;9598;50.954;3.112;2022-10-26T14:16:39;21.20;99.90
18932;DHT22;9598;50.954;3.112;2022-10-26T14:21:47;21.20;99.90
18932;DHT22;9598;50.954;3.112;2022-10-26T14:26:50;21.10;99.90
18932;DHT22;9598;50.954;3.112;2022-10-26T14:31:52;21.00;99.90
18932;DHT22;9598;50.954;3.112;2022-10-26T14:36:58;21.00;99.90
18932;DHT22;9598;50.954;3.112;2022-10-26T14:42:04;20.90;99.90
18932;DHT22;9598;50.954;3.112;2022-10-26T14:47:22;20.90;99.90
18932;DHT22;9598;50.954;3.112;2022-10-26T14:52:27;20.90;99.90
18932;DHT22;9598;50.954;3.112;2022-10-26T14:57:32;20.90;99.90
18932;DHT22;9598;50.954;3.112;2022-10-26T15:02:34;20.90;99.90
18932;DHT22;9598;50.954;3.112;2022-10-26T15:07:38;20.80;99.90
18932;DHT22;9598;50.954;3.112;2022-10-26T15:12:43;20.80;99.90
18932;DHT22;9598;50.954;3.112;2022-10-26T15:17:49;20.80;99.90
18932;DHT22;9598;50.954;3.112;2022-10-26T15:22:54;20.80;99.90
18932;DHT22;9598;50.954;3.112;2022-10-26T15:28:08;20.80;99.90
18932;DHT22;9598;50.954;3.112;2022-10-26T15:33:18;20.80;99.90
18932;DHT22;9598;50.954;3.112;2022-10-26T15:38:22;20.80;99.90
18932;DHT22;9598;50.954;3.112;2022-10-26T15:43:24;20.70;99.90
18932;DHT22;9598;50.954;3.112;2022-10-26T15:48:27;20.80;99.90
18932;DHT22;9598;50.954;3.112;2022-10-26T15:53:34;20.70;99.90
18932;DHT22;9598;50.954;3.112;2022-10-26T15:58:36;20.60;99.90
18932;DHT22;9598;50.954;3.112;2022-10-26T16:03:38;20.60;99.90
18932;DHT22;9598;50.954;3.112;2022-10-26T16:08:44;20.50;99.90
18932;DHT22;9598;50.954;3.112;2022-10-26T16:13:47;20.50;99.90
18932;DHT22;9598;50.954;3.112;2022-10-26T16:18:51;20.40;99.90
18932;DHT22;9598;50.954;3.112;2022-10-26T16:23:56;20.40;99.90
18932;DHT22;9598;50.954;3.112;2022-10-26T16:28:58;20.40;99.90
18932;DHT22;9598;50.954;3.112;2022-10-26T16:34:00;20.30;99.90
18932;DHT22;9598;50.954;3.112;2022-10-26T16:39:03;20.30;99.90
18932;DHT22;9598;50.954;3.112;2022-10-26T16:44:06;20.20;99.90
18932;DHT22;9598;50.954;3.112;2022-10-26T16:49:08;20.20;99.90
18932;DHT22;9598;50.954;3.112;2022-10-26T16:54:11;20.10;99.90
18932;DHT22;9598;50.954;3.112;2022-10-26T16:59:13;20.00;99.90
18932;DHT22;9598;50.954;3.112;2022-10-26T17:04:15;20.00;99.90
18932;DHT22;9598;50.954;3.112;2022-10-26T17:09:19;20.00;99.90
18932;DHT22;9598;50.954;3.112;2022-10-26T17:14:21;19.90;99.90
18932;DHT22;9598;50.954;3.112;2022-10-26T17:19:23;19.90;99.90
18932;DHT22;9598;50.954;3.112;2022-10-26T17:24:26;19.80;99.90
18932;DHT22;9598;50.954;3.112;2022-10-26T17:29:28;19.80;99.90
18932;DHT22;9598;50.954;3.112;2022-10-26T17:34:30;19.70;99.90
18932;DHT22;9598;50.954;3.112;2022-10-26T17:39:34;19.70;99.90
18932;DHT22;9598;50.954;3.112;2022-10-26T17:44:36;19.70;99.90
18932;DHT22;9598;50.954;3.112;2022-10-26T17:49:38;19.70;99.90
18932;DHT22;9598;50.954;3.112;2022-10-26T17:54:42;19.70;99.90
18932;DHT22;9598;50.954;3.112;2022-10-26T17:59:44;19.60;99.90
18932;DHT22;9598;50.954;3.112;2022-10-26T18:04:46;19.60;99.90
18932;DHT22;9598;50.954;3.112;2022-10-26T18:09:49;19.50;99.90
18932;DHT22;9598;50.954;3.112;2022-10-26T18:14:51;19.60;99.90
18932;DHT22;9598;50.954;3.112;2022-10-26T18:19:53;19.60;99.90
18932;DHT22;9598;50.954;3.112;2022-10-26T18:24:56;19.50;99.90
18932;DHT22;9598;50.954;3.112;2022-10-26T18:29:59;19.50;99.90
18932;DHT22;9598;50.954;3.112;2022-10-26T18:35:02;19.50;99.90
18932;DHT22;9598;50.954;3.112;2022-10-26T18:40:07;19.50;99.90
18932;DHT22;9598;50.954;3.112;2022-10-26T18:45:09;19.50;99.90
18932;DHT22;9598;50.954;3.112;2022-10-26T18:50:11;19.50;99.90
18932;DHT22;9598;50.954;3.112;2022-10-26T18:55:15;19.50;99.90
18932;DHT22;9598;50.954;3.112;2022-10-26T19:00:17;19.50;99.90
18932;DHT22;9598;50.954;3.112;2022-10-26T19:05:20;19.50;99.90
18932;DHT22;9598;50.954;3.112;2022-10-26T19:10:23;19.40;99.90
18932;DHT22;9598;50.954;3.112;2022-10-26T19:15:25;19.40;99.90
18932;DHT22;9598;50.954;3.112;2022-10-26T19:20:27;19.40;99.90
18932;DHT22;9598;50.954;3.112;2022-10-26T19:25:31;19.40;99.90
18932;DHT22;9598;50.954;3.112;2022-10-26T19:30:33;19.40;99.90
18932;DHT22;9598;50.954;3.112;2022-10-26T19:35:39;19.40;99.90
18932;DHT22;9598;50.954;3.112;2022-10-26T19:40:42;19.30;99.90
18932;DHT22;9598;50.954;3.112;2022-10-26T19:45:44;19.30;99.90
18932;DHT22;9598;50.954;3.112;2022-10-26T19:50:47;19.30;99.90
18932;DHT22;9598;50.954;3.112;2022-10-26T19:55:53;19.30;99.90
18932;DHT22;9598;50.954;3.112;2022-10-26T20:00:57;19.30;99.90
18932;DHT22;9598;50.954;3.112;2022-10-26T20:06:02;19.30;99.90
18932;DHT22;9598;50.954;3.112;2022-10-26T20:11:10;19.20;99.90
18932;DHT22;9598;50.954;3.112;2022-10-26T20:16:13;19.10;99.90
18932;DHT22;9598;50.954;3.112;2022-10-26T20:21:16;19.10;99.90
18932;DHT22;9598;50.954;3.112;2022-10-26T20:26:19;19.10;99.90
18932;DHT22;9598;50.954;3.112;2022-10-26T20:31:21;19.00;99.90
18932;DHT22;9598;50.954;3.112;2022-10-26T20:36:23;19.00;99.90
18932;DHT22;9598;50.954;3.112;2022-10-26T20:41:27;19.00;99.90
18932;DHT22;9598;50.954;3.112;2022-10-26T20:46:30;19.00;99.90
18932;DHT22;9598;50.954;3.112;2022-10-26T20:51:38;18.90;99.90
18932;DHT22;9598;50.954;3.112;2022-10-26T20:56:43;18.90;99.90
18932;DHT22;9598;50.954;3.112;2022-10-26T21:01:46;18.90;99.90
18932;DHT22;9598;50.954;3.112;2022-10-26T21:06:48;18.90;99.90
18932;DHT22;9598;50.954;3.112;2022-10-26T21:11:52;18.90;99.90
18932;DHT22;9598;50.954;3.112;2022-10-26T21:16:57;18.80;99.90
18932;DHT22;9598;50.954;3.112;2022-10-26T21:21:59;18.80;99.90
18932;DHT22;9598;50.954;3.112;2022-10-26T21:27:02;18.80;99.90
18932;DHT22;9598;50.954;3.112;2022-10-26T21:32:04;18.70;99.90
18932;DHT22;9598;50.954;3.112;2022-10-26T21:37:06;18.60;99.90
18932;DHT22;9598;50.954;3.112;2022-10-26T21:42:10;18.60;99.90
18932;DHT22;9598;50.954;3.112;2022-10-26T21:47:12;18.50;99.90
18932;DHT22;9598;50.954;3.112;2022-10-26T21:52:14;18.40;99.90
18932;DHT22;9598;50.954;3.112;2022-10-26T21:57:17;18.40;99.90
18932;DHT22;9598;50.954;3.112;2022-10-26T22:02:19;18.40;99.90
18932;DHT22;9598;50.954;3.112;2022-10-26T22:07:21;18.40;99.90
18932;DHT22;9598;50.954;3.112;2022-10-26T22:12:25;18.30;99.90
18932;DHT22;9598;50.954;3.112;2022-10-26T22:17:27;18.30;99.90
18932;DHT22;9598;50.954;3.112;2022-10-26T22:22:29;18.20;99.90
18932;DHT22;9598;50.954;3.112;2022-10-26T22:27:32;18.20;99.90
18932;DHT22;9598;50.954;3.112;2022-10-26T22:32:34;18.10;99.90
18932;DHT22;9598;50.954;3.112;2022-10-26T22:37:36;18.00;99.90
18932;DHT22;9598;50.954;3.112;2022-10-26T22:42:39;18.00;99.90
18932;DHT22;9598;50.954;3.112;2022-10-26T22:47:41;17.90;99.90
18932;DHT22;9598;50.954;3.112;2022-10-26T22:52:43;17.90;99.90
18932;DHT22;9598;50.954;3.112;2022-10-26T22:57:47;17.80;99.90
18932;DHT22;9598;50.954;3.112;2022-10-26T23:02:49;17.80;99.90
18932;DHT22;9598;50.954;3.112;2022-10-26T23:07:51;17.70;99.90
18932;DHT22;9598;50.954;3.112;2022-10-26T23:12:54;17.70;99.90
18932;DHT22;9598;50.954;3.112;2022-10-26T23:17:56;17.70;99.90
18932;DHT22;9598;50.954;3.112;2022-10-26T23:22:58;17.70;99.90
18932;DHT22;9598;50.954;3.112;2022-10-26T23:28:01;17.60;99.90
18932;DHT22;9598;50.954;3.112;2022-10-26T23:33:03;17.60;99.90
18932;DHT22;9598;50.954;3.112;2022-10-26T23:38:05;17.60;99.90
18932;DHT22;9598;50.954;3.112;2022-10-26T23:43:09;17.50;99.90
18932;DHT22;9598;50.954;3.112;2022-10-26T23:48:11;17.40;99.90
18932;DHT22;9598;50.954;3.112;2022-10-26T23:53:14;17.40;99.90
18932;DHT22;9598;50.954;3.112;2022-10-26T23:58:18;17.40;99.90
